sensor_id;sensor_type;location;lat;lon;timestamp;P1;durP1;ratioP1;P2;durP2;ratioP2
3567;SDS011;1798;48.486;9.232;2022-10-31T00:01:14;23.07;;;7.50;;
3567;SDS011;1798;48.486;9.232;2022-10-31T00:03:43;20.47;;;5.30;;
3567;SDS011;1798;48.486;9.232;2022-10-31T00:06:09;16.47;;;5.10;;
3567;SDS011;1798;48.486;9.232;2022-10-31T00:08:37;10.17;;;4.47;;
3567;SDS011;1798;48.486;9.232;2022-10-31T00:11:07;11.10;;;5.20;;
3567;SDS011;1798;48.486;9.232;2022-10-31T00:13:34;26.90;;;5.60;;
3567;SDS011;1798;48.486;9.232;2022-10-31T00:16:01;13.30;;;6.20;;
3567;SDS011;1798;48.486;9.232;2022-10-31T00:18:28;10.87;;;4.67;;
3567;SDS011;1798;48.486;9.232;2022-10-31T00:20:58;24.80;;;6.07;;
3567;SDS011;1798;48.486;9.232;2022-10-31T00:23:26;28.70;;;6.40;;
3567;SDS011;1798;48.486;9.232;2022-10-31T00:25:54;12.13;;;5.10;;
3567;SDS011;1798;48.486;9.232;2022-10-31T00:28:20;12.60;;;5.23;;
3567;SDS011;1798;48.486;9.232;2022-10-31T00:30:47;12.20;;;5.50;;
3567;SDS011;1798;48.486;9.232;2022-10-31T00:33:13;17.23;;;5.53;;
3567;SDS011;1798;48.486;9.232;2022-10-31T00:35:40;14.77;;;5.73;;
3567;SDS011;1798;48.486;9.232;2022-10-31T00:38:07;16.03;;;4.80;;
3567;SDS011;1798;48.486;9.232;2022-10-31T00:40:34;17.53;;;5.17;;
3567;SDS011;1798;48.486;9.232;2022-10-31T00:43:02;22.10;;;5.77;;
3567;SDS011;1798;48.486;9.232;2022-10-31T00:45:28;32.70;;;5.70;;
3567;SDS011;1798;48.486;9.232;2022-10-31T00:47:55;19.43;;;7.07;;
3567;SDS011;1798;48.486;9.232;2022-10-31T00:50:22;14.77;;;5.80;;
3567;SDS011;1798;48.486;9.232;2022-10-31T00:52:48;12.53;;;4.87;;
3567;SDS011;1798;48.486;9.232;2022-10-31T00:55:15;14.57;;;5.30;;
3567;SDS011;1798;48.486;9.232;2022-10-31T00:57:42;17.20;;;4.90;;
3567;SDS011;1798;48.486;9.232;2022-10-31T01:00:13;16.10;;;6.00;;
3567;SDS011;1798;48.486;9.232;2022-10-31T01:02:41;18.27;;;5.37;;
3567;SDS011;1798;48.486;9.232;2022-10-31T01:05:07;19.70;;;5.03;;
3567;SDS011;1798;48.486;9.232;2022-10-31T01:07:35;13.63;;;4.90;;
3567;SDS011;1798;48.486;9.232;2022-10-31T01:10:02;23.37;;;5.43;;
3567;SDS011;1798;48.486;9.232;2022-10-31T01:12:29;13.90;;;5.10;;
3567;SDS011;1798;48.486;9.232;2022-10-31T01:14:56;13.50;;;5.43;;
3567;SDS011;1798;48.486;9.232;2022-10-31T01:17:24;13.33;;;4.90;;
3567;SDS011;1798;48.486;9.232;2022-10-31T01:19:51;14.40;;;4.80;;
3567;SDS011;1798;48.486;9.232;2022-10-31T01:22:17;20.37;;;5.60;;
3567;SDS011;1798;48.486;9.232;2022-10-31T01:24:44;11.53;;;5.13;;
3567;SDS011;1798;48.486;9.232;2022-10-31T01:27:10;14.57;;;5.10;;
3567;SDS011;1798;48.486;9.232;2022-10-31T01:29:37;15.73;;;4.90;;
3567;SDS011;1798;48.486;9.232;2022-10-31T01:32:04;25.50;;;8.47;;
3567;SDS011;1798;48.486;9.232;2022-10-31T01:34:32;21.27;;;5.90;;
3567;SDS011;1798;48.486;9.232;2022-10-31T01:36:59;14.77;;;5.60;;
3567;SDS011;1798;48.486;9.232;2022-10-31T01:39:26;18.63;;;4.63;;
3567;SDS011;1798;48.486;9.232;2022-10-31T01:41:53;9.83;;;4.43;;
3567;SDS011;1798;48.486;9.232;2022-10-31T01:47:20;27.50;;;7.70;;
3567;SDS011;1798;48.486;9.232;2022-10-31T01:49:53;25.57;;;6.10;;
3567;SDS011;1798;48.486;9.232;2022-10-31T01:52:22;15.07;;;5.10;;
3567;SDS011;1798;48.486;9.232;2022-10-31T01:54:51;18.63;;;8.00;;
3567;SDS011;1798;48.486;9.232;2022-10-31T01:57:21;18.00;;;5.97;;
3567;SDS011;1798;48.486;9.232;2022-10-31T01:59:49;14.83;;;4.90;;
3567;SDS011;1798;48.486;9.232;2022-10-31T02:02:19;14.00;;;5.87;;
3567;SDS011;1798;48.486;9.232;2022-10-31T02:04:46;17.37;;;5.30;;
3567;SDS011;1798;48.486;9.232;2022-10-31T02:07:16;15.70;;;6.10;;
3567;SDS011;1798;48.486;9.232;2022-10-31T02:09:46;9.17;;;5.27;;
3567;SDS011;1798;48.486;9.232;2022-10-31T02:12:13;27.27;;;5.30;;
3567;SDS011;1798;48.486;9.232;2022-10-31T02:14:41;31.73;;;7.00;;
3567;SDS011;1798;48.486;9.232;2022-10-31T02:17:07;15.20;;;6.27;;
3567;SDS011;1798;48.486;9.232;2022-10-31T02:19:35;24.50;;;5.87;;
3567;SDS011;1798;48.486;9.232;2022-10-31T02:22:07;10.90;;;5.47;;
3567;SDS011;1798;48.486;9.232;2022-10-31T02:24:44;16.73;;;5.50;;
3567;SDS011;1798;48.486;9.232;2022-10-31T02:27:24;21.60;;;5.83;;
3567;SDS011;1798;48.486;9.232;2022-10-31T02:30:07;15.30;;;6.50;;
3567;SDS011;1798;48.486;9.232;2022-10-31T02:32:40;10.67;;;4.43;;
3567;SDS011;1798;48.486;9.232;2022-10-31T02:35:29;19.23;;;5.17;;
3567;SDS011;1798;48.486;9.232;2022-10-31T02:38:07;12.10;;;5.50;;
3567;SDS011;1798;48.486;9.232;2022-10-31T02:40:42;22.47;;;5.10;;
3567;SDS011;1798;48.486;9.232;2022-10-31T02:43:16;10.23;;;4.83;;
3567;SDS011;1798;48.486;9.232;2022-10-31T02:45:47;12.10;;;5.07;;
3567;SDS011;1798;48.486;9.232;2022-10-31T02:48:18;8.80;;;4.50;;
3567;SDS011;1798;48.486;9.232;2022-10-31T02:50:47;19.70;;;5.80;;
3567;SDS011;1798;48.486;9.232;2022-10-31T02:53:17;15.13;;;4.87;;
3567;SDS011;1798;48.486;9.232;2022-10-31T02:55:49;17.60;;;6.50;;
3567;SDS011;1798;48.486;9.232;2022-10-31T02:58:18;12.10;;;5.40;;
3567;SDS011;1798;48.486;9.232;2022-10-31T03:00:51;11.03;;;5.80;;
3567;SDS011;1798;48.486;9.232;2022-10-31T03:03:30;16.20;;;4.67;;
3567;SDS011;1798;48.486;9.232;2022-10-31T03:06:00;18.57;;;5.27;;
3567;SDS011;1798;48.486;9.232;2022-10-31T03:08:30;14.83;;;5.90;;
3567;SDS011;1798;48.486;9.232;2022-10-31T03:11:01;18.87;;;5.93;;
3567;SDS011;1798;48.486;9.232;2022-10-31T03:13:31;11.00;;;5.47;;
3567;SDS011;1798;48.486;9.232;2022-10-31T03:16:03;37.17;;;5.47;;
3567;SDS011;1798;48.486;9.232;2022-10-31T03:18:36;10.07;;;5.00;;
3567;SDS011;1798;48.486;9.232;2022-10-31T03:21:04;13.50;;;5.60;;
3567;SDS011;1798;48.486;9.232;2022-10-31T03:23:33;13.70;;;5.00;;
3567;SDS011;1798;48.486;9.232;2022-10-31T03:26:03;18.23;;;6.10;;
3567;SDS011;1798;48.486;9.232;2022-10-31T03:28:33;11.23;;;5.90;;
3567;SDS011;1798;48.486;9.232;2022-10-31T03:31:04;11.93;;;5.27;;
3567;SDS011;1798;48.486;9.232;2022-10-31T03:33:33;22.43;;;6.17;;
3567;SDS011;1798;48.486;9.232;2022-10-31T03:36:02;17.07;;;6.80;;
3567;SDS011;1798;48.486;9.232;2022-10-31T03:38:31;18.43;;;5.53;;
3567;SDS011;1798;48.486;9.232;2022-10-31T03:40:58;25.00;;;6.30;;
3567;SDS011;1798;48.486;9.232;2022-10-31T03:43:28;17.03;;;5.63;;
3567;SDS011;1798;48.486;9.232;2022-10-31T03:45:57;14.57;;;5.50;;
3567;SDS011;1798;48.486;9.232;2022-10-31T03:48:24;13.13;;;5.33;;
3567;SDS011;1798;48.486;9.232;2022-10-31T03:50:56;16.97;;;7.37;;
3567;SDS011;1798;48.486;9.232;2022-10-31T03:53:26;12.30;;;4.73;;
3567;SDS011;1798;48.486;9.232;2022-10-31T03:55:57;11.80;;;5.67;;
3567;SDS011;1798;48.486;9.232;2022-10-31T03:58:27;10.70;;;5.03;;
3567;SDS011;1798;48.486;9.232;2022-10-31T04:00:57;22.73;;;7.10;;
3567;SDS011;1798;48.486;9.232;2022-10-31T04:03:26;19.93;;;5.53;;
3567;SDS011;1798;48.486;9.232;2022-10-31T04:05:56;18.37;;;5.10;;
3567;SDS011;1798;48.486;9.232;2022-10-31T04:08:27;12.00;;;5.50;;
3567;SDS011;1798;48.486;9.232;2022-10-31T04:10:54;13.53;;;6.00;;
3567;SDS011;1798;48.486;9.232;2022-10-31T04:13:24;19.33;;;5.40;;
3567;SDS011;1798;48.486;9.232;2022-10-31T04:15:52;19.20;;;6.63;;
3567;SDS011;1798;48.486;9.232;2022-10-31T04:18:22;29.03;;;4.80;;
3567;SDS011;1798;48.486;9.232;2022-10-31T04:20:48;14.83;;;5.80;;
3567;SDS011;1798;48.486;9.232;2022-10-31T04:23:18;18.70;;;6.23;;
3567;SDS011;1798;48.486;9.232;2022-10-31T04:25:45;18.07;;;5.60;;
3567;SDS011;1798;48.486;9.232;2022-10-31T04:28:12;32.57;;;6.73;;
3567;SDS011;1798;48.486;9.232;2022-10-31T04:30:39;11.33;;;5.07;;
3567;SDS011;1798;48.486;9.232;2022-10-31T04:33:06;13.23;;;5.47;;
3567;SDS011;1798;48.486;9.232;2022-10-31T04:35:33;17.23;;;6.17;;
3567;SDS011;1798;48.486;9.232;2022-10-31T04:38:00;36.03;;;7.77;;
3567;SDS011;1798;48.486;9.232;2022-10-31T04:40:28;20.53;;;6.53;;
3567;SDS011;1798;48.486;9.232;2022-10-31T04:42:54;14.30;;;5.33;;
3567;SDS011;1798;48.486;9.232;2022-10-31T04:45:21;25.27;;;6.40;;
3567;SDS011;1798;48.486;9.232;2022-10-31T04:47:48;13.60;;;5.37;;
3567;SDS011;1798;48.486;9.232;2022-10-31T04:50:15;12.50;;;5.57;;
3567;SDS011;1798;48.486;9.232;2022-10-31T04:52:42;23.53;;;5.40;;
3567;SDS011;1798;48.486;9.232;2022-10-31T04:55:10;15.53;;;6.07;;
3567;SDS011;1798;48.486;9.232;2022-10-31T04:57:41;24.93;;;5.63;;
3567;SDS011;1798;48.486;9.232;2022-10-31T05:00:09;16.07;;;5.73;;
3567;SDS011;1798;48.486;9.232;2022-10-31T05:02:42;16.63;;;4.97;;
3567;SDS011;1798;48.486;9.232;2022-10-31T05:05:10;20.07;;;5.50;;
3567;SDS011;1798;48.486;9.232;2022-10-31T05:07:38;20.53;;;6.00;;
3567;SDS011;1798;48.486;9.232;2022-10-31T05:10:05;45.03;;;6.83;;
3567;SDS011;1798;48.486;9.232;2022-10-31T05:12:34;13.97;;;5.33;;
3567;SDS011;1798;48.486;9.232;2022-10-31T05:15:03;10.77;;;4.80;;
3567;SDS011;1798;48.486;9.232;2022-10-31T05:17:31;26.20;;;5.70;;
3567;SDS011;1798;48.486;9.232;2022-10-31T05:19:57;16.07;;;6.13;;
3567;SDS011;1798;48.486;9.232;2022-10-31T05:22:24;12.53;;;5.13;;
3567;SDS011;1798;48.486;9.232;2022-10-31T05:24:51;20.33;;;5.37;;
3567;SDS011;1798;48.486;9.232;2022-10-31T05:27:17;19.57;;;5.60;;
3567;SDS011;1798;48.486;9.232;2022-10-31T05:29:44;17.03;;;6.10;;
3567;SDS011;1798;48.486;9.232;2022-10-31T05:32:12;11.83;;;4.87;;
3567;SDS011;1798;48.486;9.232;2022-10-31T05:34:39;7.60;;;4.43;;
3567;SDS011;1798;48.486;9.232;2022-10-31T05:37:05;22.97;;;5.27;;
3567;SDS011;1798;48.486;9.232;2022-10-31T05:39:32;13.67;;;5.17;;
3567;SDS011;1798;48.486;9.232;2022-10-31T05:41:59;19.83;;;5.67;;
3567;SDS011;1798;48.486;9.232;2022-10-31T05:44:25;10.83;;;5.97;;
3567;SDS011;1798;48.486;9.232;2022-10-31T05:46:52;16.47;;;5.90;;
3567;SDS011;1798;48.486;9.232;2022-10-31T05:49:20;17.40;;;6.03;;
3567;SDS011;1798;48.486;9.232;2022-10-31T05:51:47;17.10;;;6.50;;
3567;SDS011;1798;48.486;9.232;2022-10-31T05:54:14;12.03;;;5.03;;
3567;SDS011;1798;48.486;9.232;2022-10-31T05:56:41;18.00;;;4.90;;
3567;SDS011;1798;48.486;9.232;2022-10-31T05:59:07;23.57;;;5.43;;
3567;SDS011;1798;48.486;9.232;2022-10-31T06:01:34;17.20;;;5.87;;
3567;SDS011;1798;48.486;9.232;2022-10-31T06:04:01;11.13;;;4.73;;
3567;SDS011;1798;48.486;9.232;2022-10-31T06:06:29;16.63;;;5.07;;
3567;SDS011;1798;48.486;9.232;2022-10-31T06:08:55;21.57;;;6.27;;
3567;SDS011;1798;48.486;9.232;2022-10-31T06:11:22;16.10;;;4.80;;
3567;SDS011;1798;48.486;9.232;2022-10-31T06:13:50;15.57;;;5.00;;
3567;SDS011;1798;48.486;9.232;2022-10-31T06:16:16;24.37;;;6.60;;
3567;SDS011;1798;48.486;9.232;2022-10-31T06:18:43;11.27;;;4.77;;
3567;SDS011;1798;48.486;9.232;2022-10-31T06:21:10;33.10;;;5.47;;
3567;SDS011;1798;48.486;9.232;2022-10-31T06:23:38;14.50;;;4.80;;
3567;SDS011;1798;48.486;9.232;2022-10-31T06:26:04;12.73;;;5.83;;
3567;SDS011;1798;48.486;9.232;2022-10-31T06:28:31;24.80;;;6.50;;
3567;SDS011;1798;48.486;9.232;2022-10-31T06:30:58;15.67;;;5.67;;
3567;SDS011;1798;48.486;9.232;2022-10-31T06:33:24;13.90;;;5.00;;
3567;SDS011;1798;48.486;9.232;2022-10-31T06:35:51;10.83;;;4.57;;
3567;SDS011;1798;48.486;9.232;2022-10-31T06:38:17;12.87;;;5.30;;
3567;SDS011;1798;48.486;9.232;2022-10-31T06:40:46;11.33;;;5.07;;
3567;SDS011;1798;48.486;9.232;2022-10-31T06:43:13;11.43;;;4.97;;
3567;SDS011;1798;48.486;9.232;2022-10-31T06:45:39;15.03;;;5.23;;
3567;SDS011;1798;48.486;9.232;2022-10-31T06:48:06;16.77;;;6.07;;
3567;SDS011;1798;48.486;9.232;2022-10-31T06:50:33;16.23;;;7.63;;
3567;SDS011;1798;48.486;9.232;2022-10-31T06:53:00;24.30;;;6.50;;
3567;SDS011;1798;48.486;9.232;2022-10-31T06:55:27;12.53;;;6.33;;
3567;SDS011;1798;48.486;9.232;2022-10-31T06:57:55;11.37;;;5.83;;
3567;SDS011;1798;48.486;9.232;2022-10-31T07:00:24;12.10;;;5.50;;
3567;SDS011;1798;48.486;9.232;2022-10-31T07:02:52;22.93;;;6.73;;
3567;SDS011;1798;48.486;9.232;2022-10-31T07:05:20;20.33;;;5.17;;
3567;SDS011;1798;48.486;9.232;2022-10-31T07:07:46;20.50;;;5.40;;
3567;SDS011;1798;48.486;9.232;2022-10-31T07:10:13;11.93;;;5.60;;
3567;SDS011;1798;48.486;9.232;2022-10-31T07:12:40;37.30;;;5.50;;
3567;SDS011;1798;48.486;9.232;2022-10-31T07:15:08;12.97;;;6.80;;
3567;SDS011;1798;48.486;9.232;2022-10-31T07:17:35;14.60;;;7.07;;
3567;SDS011;1798;48.486;9.232;2022-10-31T07:20:02;24.47;;;6.50;;
3567;SDS011;1798;48.486;9.232;2022-10-31T07:22:33;15.97;;;5.87;;
3567;SDS011;1798;48.486;9.232;2022-10-31T07:25:00;13.57;;;6.33;;
3567;SDS011;1798;48.486;9.232;2022-10-31T07:27:26;12.00;;;6.00;;
3567;SDS011;1798;48.486;9.232;2022-10-31T07:29:53;32.03;;;7.77;;
3567;SDS011;1798;48.486;9.232;2022-10-31T07:32:21;21.50;;;6.40;;
3567;SDS011;1798;48.486;9.232;2022-10-31T07:34:48;45.57;;;8.67;;
3567;SDS011;1798;48.486;9.232;2022-10-31T07:37:15;20.33;;;6.23;;
3567;SDS011;1798;48.486;9.232;2022-10-31T07:39:42;18.60;;;6.60;;
3567;SDS011;1798;48.486;9.232;2022-10-31T07:42:08;16.80;;;5.80;;
3567;SDS011;1798;48.486;9.232;2022-10-31T07:44:35;26.73;;;6.00;;
3567;SDS011;1798;48.486;9.232;2022-10-31T07:47:02;20.93;;;7.10;;
3567;SDS011;1798;48.486;9.232;2022-10-31T07:49:30;25.80;;;7.23;;
3567;SDS011;1798;48.486;9.232;2022-10-31T07:51:56;14.70;;;6.60;;
3567;SDS011;1798;48.486;9.232;2022-10-31T07:54:23;17.17;;;7.63;;
3567;SDS011;1798;48.486;9.232;2022-10-31T07:56:50;19.20;;;7.47;;
3567;SDS011;1798;48.486;9.232;2022-10-31T07:59:16;19.03;;;7.07;;
3567;SDS011;1798;48.486;9.232;2022-10-31T08:01:43;23.60;;;8.17;;
3567;SDS011;1798;48.486;9.232;2022-10-31T08:04:10;24.07;;;8.57;;
3567;SDS011;1798;48.486;9.232;2022-10-31T08:06:38;21.37;;;7.20;;
3567;SDS011;1798;48.486;9.232;2022-10-31T08:09:05;14.03;;;7.47;;
3567;SDS011;1798;48.486;9.232;2022-10-31T08:11:32;15.43;;;7.27;;
3567;SDS011;1798;48.486;9.232;2022-10-31T08:13:58;32.47;;;9.47;;
3567;SDS011;1798;48.486;9.232;2022-10-31T08:16:26;14.90;;;6.00;;
3567;SDS011;1798;48.486;9.232;2022-10-31T08:18:52;20.10;;;6.63;;
3567;SDS011;1798;48.486;9.232;2022-10-31T08:21:20;13.77;;;5.80;;
3567;SDS011;1798;48.486;9.232;2022-10-31T08:23:48;39.20;;;8.10;;
3567;SDS011;1798;48.486;9.232;2022-10-31T08:26:15;19.53;;;7.33;;
3567;SDS011;1798;48.486;9.232;2022-10-31T08:28:42;11.10;;;4.77;;
3567;SDS011;1798;48.486;9.232;2022-10-31T08:31:09;20.90;;;7.80;;
3567;SDS011;1798;48.486;9.232;2022-10-31T08:33:35;13.57;;;7.20;;
3567;SDS011;1798;48.486;9.232;2022-10-31T08:36:02;21.63;;;8.27;;
3567;SDS011;1798;48.486;9.232;2022-10-31T08:38:30;34.77;;;9.80;;
3567;SDS011;1798;48.486;9.232;2022-10-31T08:40:58;32.33;;;7.53;;
3567;SDS011;1798;48.486;9.232;2022-10-31T08:43:25;19.17;;;8.40;;
3567;SDS011;1798;48.486;9.232;2022-10-31T08:45:51;19.37;;;6.60;;
3567;SDS011;1798;48.486;9.232;2022-10-31T08:48:20;27.87;;;7.60;;
3567;SDS011;1798;48.486;9.232;2022-10-31T08:50:47;15.63;;;6.30;;
3567;SDS011;1798;48.486;9.232;2022-10-31T08:53:14;20.33;;;6.80;;
3567;SDS011;1798;48.486;9.232;2022-10-31T08:55:43;19.93;;;7.50;;
3567;SDS011;1798;48.486;9.232;2022-10-31T08:58:12;14.60;;;6.87;;
3567;SDS011;1798;48.486;9.232;2022-10-31T09:00:40;15.97;;;6.23;;
3567;SDS011;1798;48.486;9.232;2022-10-31T09:03:10;26.97;;;8.50;;
3567;SDS011;1798;48.486;9.232;2022-10-31T09:05:37;24.37;;;8.70;;
3567;SDS011;1798;48.486;9.232;2022-10-31T09:08:04;21.80;;;7.40;;
3567;SDS011;1798;48.486;9.232;2022-10-31T09:10:32;41.77;;;8.00;;
3567;SDS011;1798;48.486;9.232;2022-10-31T09:13:01;20.17;;;7.07;;
3567;SDS011;1798;48.486;9.232;2022-10-31T09:15:32;11.20;;;5.93;;
3567;SDS011;1798;48.486;9.232;2022-10-31T09:17:59;21.33;;;6.60;;
3567;SDS011;1798;48.486;9.232;2022-10-31T09:20:26;25.93;;;7.57;;
3567;SDS011;1798;48.486;9.232;2022-10-31T09:22:56;32.03;;;8.10;;
3567;SDS011;1798;48.486;9.232;2022-10-31T09:25:24;16.13;;;5.83;;
3567;SDS011;1798;48.486;9.232;2022-10-31T09:27:50;17.03;;;6.90;;
3567;SDS011;1798;48.486;9.232;2022-10-31T09:30:18;16.10;;;6.73;;
3567;SDS011;1798;48.486;9.232;2022-10-31T09:32:46;28.30;;;7.40;;
3567;SDS011;1798;48.486;9.232;2022-10-31T09:35:13;43.27;;;7.00;;
3567;SDS011;1798;48.486;9.232;2022-10-31T09:37:40;10.60;;;5.30;;
3567;SDS011;1798;48.486;9.232;2022-10-31T09:40:07;9.37;;;5.80;;
3567;SDS011;1798;48.486;9.232;2022-10-31T09:42:47;7.90;;;4.70;;
3567;SDS011;1798;48.486;9.232;2022-10-31T09:45:21;16.10;;;6.57;;
3567;SDS011;1798;48.486;9.232;2022-10-31T09:47:55;12.97;;;5.43;;
3567;SDS011;1798;48.486;9.232;2022-10-31T09:50:31;17.30;;;7.03;;
3567;SDS011;1798;48.486;9.232;2022-10-31T09:53:05;9.77;;;5.03;;
3567;SDS011;1798;48.486;9.232;2022-10-31T09:55:37;9.27;;;5.07;;
3567;SDS011;1798;48.486;9.232;2022-10-31T09:58:07;15.07;;;5.50;;
3567;SDS011;1798;48.486;9.232;2022-10-31T10:00:35;8.27;;;5.30;;
3567;SDS011;1798;48.486;9.232;2022-10-31T10:03:06;26.50;;;6.17;;
3567;SDS011;1798;48.486;9.232;2022-10-31T10:05:38;23.83;;;8.40;;
3567;SDS011;1798;48.486;9.232;2022-10-31T10:08:08;14.27;;;7.63;;
3567;SDS011;1798;48.486;9.232;2022-10-31T10:10:41;25.67;;;9.77;;
3567;SDS011;1798;48.486;9.232;2022-10-31T10:13:30;41.97;;;7.30;;
3567;SDS011;1798;48.486;9.232;2022-10-31T10:16:11;12.73;;;5.27;;
3567;SDS011;1798;48.486;9.232;2022-10-31T10:18:46;24.40;;;6.47;;
3567;SDS011;1798;48.486;9.232;2022-10-31T10:21:24;47.10;;;6.90;;
3567;SDS011;1798;48.486;9.232;2022-10-31T10:23:57;32.47;;;6.90;;
3567;SDS011;1798;48.486;9.232;2022-10-31T10:26:33;22.23;;;7.47;;
3567;SDS011;1798;48.486;9.232;2022-10-31T10:29:03;25.47;;;6.20;;
3567;SDS011;1798;48.486;9.232;2022-10-31T10:31:39;15.80;;;6.37;;
3567;SDS011;1798;48.486;9.232;2022-10-31T10:34:10;12.53;;;6.17;;
3567;SDS011;1798;48.486;9.232;2022-10-31T10:36:40;10.30;;;5.47;;
3567;SDS011;1798;48.486;9.232;2022-10-31T10:39:11;15.50;;;5.70;;
3567;SDS011;1798;48.486;9.232;2022-10-31T10:41:43;14.20;;;6.53;;
3567;SDS011;1798;48.486;9.232;2022-10-31T10:44:11;22.23;;;6.90;;
3567;SDS011;1798;48.486;9.232;2022-10-31T10:46:40;12.80;;;5.50;;
3567;SDS011;1798;48.486;9.232;2022-10-31T10:49:28;7.97;;;4.27;;
3567;SDS011;1798;48.486;9.232;2022-10-31T10:51:57;12.03;;;5.17;;
3567;SDS011;1798;48.486;9.232;2022-10-31T10:54:33;28.70;;;6.30;;
3567;SDS011;1798;48.486;9.232;2022-10-31T10:57:09;13.70;;;5.87;;
3567;SDS011;1798;48.486;9.232;2022-10-31T10:59:42;17.50;;;6.70;;
3567;SDS011;1798;48.486;9.232;2022-10-31T11:02:16;32.67;;;6.83;;
3567;SDS011;1798;48.486;9.232;2022-10-31T11:04:45;23.37;;;8.13;;
3567;SDS011;1798;48.486;9.232;2022-10-31T11:07:14;32.97;;;7.00;;
3567;SDS011;1798;48.486;9.232;2022-10-31T11:09:40;15.37;;;7.43;;
3567;SDS011;1798;48.486;9.232;2022-10-31T11:12:08;22.90;;;6.00;;
3567;SDS011;1798;48.486;9.232;2022-10-31T11:14:37;12.60;;;6.83;;
3567;SDS011;1798;48.486;9.232;2022-10-31T11:17:17;25.23;;;8.87;;
3567;SDS011;1798;48.486;9.232;2022-10-31T11:19:49;17.67;;;7.27;;
3567;SDS011;1798;48.486;9.232;2022-10-31T11:22:26;34.87;;;9.83;;
3567;SDS011;1798;48.486;9.232;2022-10-31T11:24:52;18.60;;;7.57;;
3567;SDS011;1798;48.486;9.232;2022-10-31T11:27:20;59.33;;;7.50;;
3567;SDS011;1798;48.486;9.232;2022-10-31T11:29:48;26.33;;;7.80;;
3567;SDS011;1798;48.486;9.232;2022-10-31T11:32:17;49.00;;;8.80;;
3567;SDS011;1798;48.486;9.232;2022-10-31T11:34:45;26.80;;;8.67;;
3567;SDS011;1798;48.486;9.232;2022-10-31T11:37:16;43.10;;;8.17;;
3567;SDS011;1798;48.486;9.232;2022-10-31T11:39:44;39.67;;;7.97;;
3567;SDS011;1798;48.486;9.232;2022-10-31T11:42:18;49.83;;;7.23;;
3567;SDS011;1798;48.486;9.232;2022-10-31T11:44:46;32.47;;;8.97;;
3567;SDS011;1798;48.486;9.232;2022-10-31T11:47:13;22.30;;;8.10;;
3567;SDS011;1798;48.486;9.232;2022-10-31T11:49:41;41.03;;;8.73;;
3567;SDS011;1798;48.486;9.232;2022-10-31T11:52:12;29.90;;;7.70;;
3567;SDS011;1798;48.486;9.232;2022-10-31T11:54:44;20.73;;;7.47;;
3567;SDS011;1798;48.486;9.232;2022-10-31T11:57:23;16.70;;;7.77;;
3567;SDS011;1798;48.486;9.232;2022-10-31T11:59:51;40.60;;;7.30;;
3567;SDS011;1798;48.486;9.232;2022-10-31T12:02:19;19.07;;;7.47;;
3567;SDS011;1798;48.486;9.232;2022-10-31T12:04:48;17.80;;;6.60;;
3567;SDS011;1798;48.486;9.232;2022-10-31T12:07:17;20.03;;;6.87;;
3567;SDS011;1798;48.486;9.232;2022-10-31T12:09:45;23.27;;;7.30;;
3567;SDS011;1798;48.486;9.232;2022-10-31T12:12:20;20.47;;;8.30;;
3567;SDS011;1798;48.486;9.232;2022-10-31T12:14:55;27.80;;;8.87;;
3567;SDS011;1798;48.486;9.232;2022-10-31T12:17:30;28.43;;;9.20;;
3567;SDS011;1798;48.486;9.232;2022-10-31T12:20:01;18.07;;;7.13;;
3567;SDS011;1798;48.486;9.232;2022-10-31T12:22:34;22.70;;;7.60;;
3567;SDS011;1798;48.486;9.232;2022-10-31T12:25:15;26.37;;;7.30;;
3567;SDS011;1798;48.486;9.232;2022-10-31T12:27:51;17.83;;;6.40;;
3567;SDS011;1798;48.486;9.232;2022-10-31T12:30:24;15.30;;;7.03;;
3567;SDS011;1798;48.486;9.232;2022-10-31T12:33:08;21.77;;;6.53;;
3567;SDS011;1798;48.486;9.232;2022-10-31T12:35:45;18.77;;;7.97;;
3567;SDS011;1798;48.486;9.232;2022-10-31T12:38:22;19.20;;;7.20;;
3567;SDS011;1798;48.486;9.232;2022-10-31T12:41:07;24.20;;;8.17;;
3567;SDS011;1798;48.486;9.232;2022-10-31T12:43:51;19.47;;;7.40;;
3567;SDS011;1798;48.486;9.232;2022-10-31T12:46:25;24.40;;;7.10;;
3567;SDS011;1798;48.486;9.232;2022-10-31T12:51:59;15.20;;;7.40;;
3567;SDS011;1798;48.486;9.232;2022-10-31T12:54:39;17.70;;;6.80;;
3567;SDS011;1798;48.486;9.232;2022-10-31T12:57:21;18.80;;;7.73;;
3567;SDS011;1798;48.486;9.232;2022-10-31T12:59:51;14.83;;;6.50;;
3567;SDS011;1798;48.486;9.232;2022-10-31T13:02:22;17.73;;;7.47;;
3567;SDS011;1798;48.486;9.232;2022-10-31T13:04:54;16.10;;;8.60;;
3567;SDS011;1798;48.486;9.232;2022-10-31T13:07:23;29.20;;;7.07;;
3567;SDS011;1798;48.486;9.232;2022-10-31T13:09:53;15.87;;;6.63;;
3567;SDS011;1798;48.486;9.232;2022-10-31T13:12:24;17.27;;;6.10;;
3567;SDS011;1798;48.486;9.232;2022-10-31T13:14:55;34.03;;;7.10;;
3567;SDS011;1798;48.486;9.232;2022-10-31T13:17:26;21.00;;;8.10;;
3567;SDS011;1798;48.486;9.232;2022-10-31T13:20:02;50.17;;;8.77;;
3567;SDS011;1798;48.486;9.232;2022-10-31T13:22:38;22.37;;;9.83;;
3567;SDS011;1798;48.486;9.232;2022-10-31T13:25:09;29.57;;;8.70;;
3567;SDS011;1798;48.486;9.232;2022-10-31T13:27:43;25.97;;;10.33;;
3567;SDS011;1798;48.486;9.232;2022-10-31T13:30:14;26.03;;;9.07;;
3567;SDS011;1798;48.486;9.232;2022-10-31T13:32:42;36.37;;;11.77;;
3567;SDS011;1798;48.486;9.232;2022-10-31T13:35:14;36.03;;;9.17;;
3567;SDS011;1798;48.486;9.232;2022-10-31T13:37:46;34.57;;;11.40;;
3567;SDS011;1798;48.486;9.232;2022-10-31T13:40:17;23.50;;;10.10;;
3567;SDS011;1798;48.486;9.232;2022-10-31T13:43:05;22.20;;;8.60;;
3567;SDS011;1798;48.486;9.232;2022-10-31T13:45:35;28.23;;;10.97;;
3567;SDS011;1798;48.486;9.232;2022-10-31T13:48:19;56.30;;;10.10;;
3567;SDS011;1798;48.486;9.232;2022-10-31T13:50:59;20.17;;;9.07;;
3567;SDS011;1798;48.486;9.232;2022-10-31T13:53:35;26.47;;;9.90;;
3567;SDS011;1798;48.486;9.232;2022-10-31T14:01:45;35.30;;;8.40;;
3567;SDS011;1798;48.486;9.232;2022-10-31T14:04:14;27.80;;;9.70;;
3567;SDS011;1798;48.486;9.232;2022-10-31T14:06:43;42.00;;;9.47;;
3567;SDS011;1798;48.486;9.232;2022-10-31T14:09:18;26.07;;;9.90;;
3567;SDS011;1798;48.486;9.232;2022-10-31T14:11:47;39.20;;;10.60;;
3567;SDS011;1798;48.486;9.232;2022-10-31T14:14:14;23.63;;;8.33;;
3567;SDS011;1798;48.486;9.232;2022-10-31T14:16:43;21.60;;;9.00;;
3567;SDS011;1798;48.486;9.232;2022-10-31T14:19:14;25.57;;;11.63;;
3567;SDS011;1798;48.486;9.232;2022-10-31T14:21:43;24.70;;;9.40;;
3567;SDS011;1798;48.486;9.232;2022-10-31T14:24:14;39.93;;;10.57;;
3567;SDS011;1798;48.486;9.232;2022-10-31T14:26:51;27.93;;;9.77;;
3567;SDS011;1798;48.486;9.232;2022-10-31T14:29:32;30.03;;;9.67;;
3567;SDS011;1798;48.486;9.232;2022-10-31T14:32:01;21.57;;;8.67;;
3567;SDS011;1798;48.486;9.232;2022-10-31T14:34:36;25.03;;;9.60;;
3567;SDS011;1798;48.486;9.232;2022-10-31T14:37:11;22.83;;;10.73;;
3567;SDS011;1798;48.486;9.232;2022-10-31T14:39:45;36.60;;;10.50;;
3567;SDS011;1798;48.486;9.232;2022-10-31T14:42:25;44.57;;;8.97;;
3567;SDS011;1798;48.486;9.232;2022-10-31T14:45:05;35.10;;;9.17;;
3567;SDS011;1798;48.486;9.232;2022-10-31T14:47:39;30.37;;;9.67;;
3567;SDS011;1798;48.486;9.232;2022-10-31T14:50:23;25.03;;;9.53;;
3567;SDS011;1798;48.486;9.232;2022-10-31T14:52:53;38.20;;;9.30;;
3567;SDS011;1798;48.486;9.232;2022-10-31T14:55:22;28.77;;;10.87;;
3567;SDS011;1798;48.486;9.232;2022-10-31T14:57:50;18.67;;;8.27;;
3567;SDS011;1798;48.486;9.232;2022-10-31T15:00:21;32.43;;;9.60;;
3567;SDS011;1798;48.486;9.232;2022-10-31T15:02:50;30.90;;;8.97;;
3567;SDS011;1798;48.486;9.232;2022-10-31T15:05:23;27.50;;;8.87;;
3567;SDS011;1798;48.486;9.232;2022-10-31T15:07:52;46.23;;;8.10;;
3567;SDS011;1798;48.486;9.232;2022-10-31T15:10:20;28.87;;;9.60;;
3567;SDS011;1798;48.486;9.232;2022-10-31T15:12:48;38.30;;;19.60;;
3567;SDS011;1798;48.486;9.232;2022-10-31T15:15:17;51.40;;;23.40;;
3567;SDS011;1798;48.486;9.232;2022-10-31T15:17:48;47.23;;;19.60;;
3567;SDS011;1798;48.486;9.232;2022-10-31T15:20:17;29.77;;;13.50;;
3567;SDS011;1798;48.486;9.232;2022-10-31T15:22:44;24.37;;;10.90;;
3567;SDS011;1798;48.486;9.232;2022-10-31T15:25:12;26.20;;;10.27;;
3567;SDS011;1798;48.486;9.232;2022-10-31T15:27:43;32.73;;;10.00;;